createdAt,value
2019-05-26T00:00:49.644Z,10.46
2019-05-26T00:03:18.033Z,10.38
2019-05-26T00:05:46.425Z,10.36
2019-05-26T00:08:14.837Z,10.48
2019-05-26T00:10:43.223Z,10.50
2019-05-26T00:13:11.631Z,10.45
2019-05-26T00:15:40.599Z,10.38
2019-05-26T00:18:09.003Z,10.32
2019-05-26T00:20:37.454Z,10.28
2019-05-26T00:23:05.850Z,10.20
2019-05-26T00:25:34.246Z,10.10
2019-05-26T00:28:02.652Z,10.10
2019-05-26T00:30:31.297Z,10.19
2019-05-26T00:32:59.705Z,10.23
2019-05-26T00:35:28.109Z,10.24
2019-05-26T00:37:56.882Z,10.23
2019-05-26T00:40:25.347Z,10.20
2019-05-26T00:42:53.755Z,10.15
2019-05-26T00:45:25.249Z,10.12
2019-05-26T00:47:53.667Z,10.03
2019-05-26T00:50:22.327Z,9.92
2019-05-26T00:52:50.870Z,9.85
2019-05-26T00:55:19.708Z,9.78
2019-05-26T00:57:48.103Z,9.69
2019-05-26T01:00:19.540Z,9.65
2019-05-26T01:02:47.961Z,9.63
2019-05-26T01:05:16.418Z,9.61
2019-05-26T01:07:44.807Z,9.57
2019-05-26T01:10:13.871Z,9.59
2019-05-26T01:12:42.275Z,9.59
2019-05-26T01:15:11.514Z,9.62
2019-05-26T01:17:39.915Z,9.65
2019-05-26T01:20:09.044Z,9.76
2019-05-26T01:22:37.443Z,9.86
2019-05-26T01:25:07.637Z,9.80
2019-05-26T01:27:36.575Z,9.73
2019-05-26T01:30:07.073Z,9.63
2019-05-26T01:32:35.459Z,9.49
2019-05-26T01:35:05.315Z,9.36
2019-05-26T01:37:34.037Z,9.28
2019-05-26T01:40:02.464Z,9.23
2019-05-26T01:42:30.858Z,9.23
2019-05-26T01:44:59.239Z,9.20
2019-05-26T01:47:28.114Z,9.14
2019-05-26T01:49:56.500Z,9.12
2019-05-26T01:52:25.167Z,9.05
2019-05-26T01:54:53.586Z,8.84
2019-05-26T01:57:22.121Z,8.69
2019-05-26T01:59:50.534Z,8.55
2019-05-26T02:02:18.931Z,8.51
2019-05-26T02:04:47.321Z,8.69
2019-05-26T02:07:15.752Z,8.87
2019-05-26T02:09:44.158Z,9.06
2019-05-26T02:12:12.533Z,9.11
2019-05-26T02:14:40.946Z,9.04
2019-05-26T02:17:09.405Z,8.88
2019-05-26T02:19:37.798Z,8.70
2019-05-26T02:22:06.865Z,8.59
2019-05-26T02:24:35.614Z,8.53
2019-05-26T02:27:04.049Z,8.47
2019-05-26T02:29:32.386Z,8.49
2019-05-26T02:32:01.104Z,8.50
2019-05-26T02:34:29.753Z,8.50
2019-05-26T02:36:58.145Z,8.47
2019-05-26T02:39:26.556Z,8.41
2019-05-26T02:41:54.940Z,8.36
2019-05-26T02:44:23.354Z,8.31
2019-05-26T02:46:51.767Z,8.37
2019-05-26T02:49:20.156Z,8.37
2019-05-26T02:51:48.557Z,8.34
2019-05-26T02:54:17.064Z,8.31
2019-05-26T02:56:45.510Z,8.29
2019-05-26T02:59:14.145Z,8.24
2019-05-26T03:02:00.792Z,8.23
2019-05-26T03:04:12.935Z,8.18
2019-05-26T03:06:42.478Z,8.04
2019-05-26T03:09:22.985Z,7.93
2019-05-26T03:11:42.789Z,7.89
2019-05-26T03:14:11.718Z,7.86
2019-05-26T03:16:43.782Z,7.81
2019-05-26T03:19:14.484Z,7.77
2019-05-26T03:21:45.183Z,7.71
2019-05-26T03:24:16.952Z,7.70
2019-05-26T03:26:45.427Z,7.65
2019-05-26T03:29:13.816Z,7.63
2019-05-26T03:31:42.218Z,7.57
2019-05-26T03:34:10.619Z,7.63
2019-05-26T03:36:39.002Z,7.75
2019-05-26T03:39:07.765Z,7.77
2019-05-26T03:41:36.182Z,7.71
2019-05-26T03:44:04.653Z,7.61
2019-05-26T03:46:33.039Z,7.50
2019-05-26T03:49:01.450Z,7.44
2019-05-26T03:51:29.834Z,7.39
2019-05-26T03:53:58.290Z,7.37
2019-05-26T03:56:26.713Z,7.35
2019-05-26T03:58:55.104Z,7.33
2019-05-26T04:01:23.578Z,7.33
2019-05-26T04:03:51.916Z,7.30
2019-05-26T04:06:20.728Z,7.28
2019-05-26T04:08:49.116Z,7.28
2019-05-26T04:11:17.510Z,7.29
2019-05-26T04:13:46.175Z,7.29
2019-05-26T04:16:14.579Z,7.32
2019-05-26T04:18:42.967Z,7.34
2019-05-26T04:21:11.360Z,7.38
2019-05-26T04:23:39.836Z,7.38
2019-05-26T04:26:08.233Z,7.41
2019-05-26T04:28:36.630Z,7.45
2019-05-26T04:31:05.097Z,7.50
2019-05-26T04:33:33.524Z,7.56
2019-05-26T04:36:01.897Z,7.60
2019-05-26T04:38:30.293Z,7.66
2019-05-26T04:40:58.680Z,7.73
2019-05-26T04:43:27.106Z,7.78
2019-05-26T04:45:55.491Z,7.88
2019-05-26T04:48:23.885Z,7.95
2019-05-26T04:50:52.367Z,8.03
2019-05-26T04:53:20.777Z,8.11
2019-05-26T04:55:49.176Z,8.16
2019-05-26T04:58:17.908Z,8.24
2019-05-26T05:00:46.297Z,8.31
2019-05-26T05:03:14.715Z,8.38
2019-05-26T05:05:43.113Z,8.46
2019-05-26T05:08:11.527Z,8.50
2019-05-26T05:10:42.735Z,8.56
2019-05-26T05:13:10.035Z,8.60
2019-05-26T05:15:38.496Z,8.66
2019-05-26T05:18:06.876Z,8.71
2019-05-26T05:20:35.303Z,8.77
2019-05-26T05:23:03.774Z,8.80
2019-05-26T05:25:32.194Z,8.85
2019-05-26T05:28:00.605Z,8.89
2019-05-26T05:30:29.143Z,8.90
2019-05-26T05:32:57.493Z,8.94
2019-05-26T05:35:25.967Z,8.96
2019-05-26T05:37:54.382Z,9.00
2019-05-26T05:40:22.866Z,9.04
2019-05-26T05:42:51.271Z,9.10
2019-05-26T05:45:19.742Z,9.20
2019-05-26T05:47:48.131Z,9.27
2019-05-26T05:50:16.994Z,9.30
2019-05-26T05:52:45.635Z,9.35
2019-05-26T05:55:15.728Z,9.42
2019-05-26T05:57:44.131Z,9.48
2019-05-26T06:00:13.185Z,9.56
2019-05-26T06:02:41.589Z,9.61
2019-05-26T06:05:10.146Z,9.65
2019-05-26T06:07:38.535Z,9.70
2019-05-26T06:10:10.414Z,9.76
2019-05-26T06:12:38.867Z,9.83
2019-05-26T06:15:12.174Z,9.88
2019-05-26T06:17:41.128Z,9.94
2019-05-26T06:20:10.114Z,10.06
2019-05-26T06:22:41.303Z,10.13
2019-05-26T06:25:10.982Z,10.28
2019-05-26T06:27:39.405Z,10.48
2019-05-26T06:30:11.186Z,10.66
2019-05-26T06:32:42.375Z,10.90
2019-05-26T06:35:14.355Z,11.22
2019-05-26T06:37:42.752Z,11.44
2019-05-26T06:40:11.703Z,11.70
2019-05-26T06:42:40.247Z,11.95
2019-05-26T06:45:09.304Z,12.25
2019-05-26T06:47:37.701Z,12.49
2019-05-26T06:50:06.766Z,12.69
2019-05-26T06:52:35.392Z,13.01
2019-05-26T06:55:04.934Z,13.34
2019-05-26T06:57:33.645Z,14.00
2019-05-26T07:00:02.053Z,14.48
2019-05-26T07:02:30.486Z,14.83
2019-05-26T07:04:58.875Z,15.23
2019-05-26T07:07:27.295Z,15.64
2019-05-26T07:09:55.888Z,15.84
2019-05-26T07:12:24.294Z,15.86
2019-05-26T07:14:52.695Z,15.98
2019-05-26T07:17:21.114Z,16.02
2019-05-26T07:19:49.524Z,16.16
2019-05-26T07:22:17.936Z,16.46
2019-05-26T07:24:46.329Z,16.71
2019-05-26T07:27:15.023Z,16.90
2019-05-26T07:29:43.684Z,17.06
2019-05-26T07:32:12.125Z,17.29
2019-05-26T07:34:40.526Z,17.42
2019-05-26T07:37:08.966Z,17.56
2019-05-26T07:39:37.365Z,17.64
2019-05-26T07:42:10.532Z,17.71
2019-05-26T07:44:35.920Z,17.95
2019-05-26T07:47:04.673Z,18.13
2019-05-26T07:49:33.079Z,18.24
2019-05-26T07:52:01.502Z,18.22
2019-05-26T07:54:30.233Z,18.38
2019-05-26T07:56:58.655Z,18.73
2019-05-26T07:59:27.053Z,18.73
2019-05-26T08:01:55.580Z,18.99
2019-05-26T08:04:23.972Z,19.02
2019-05-26T08:06:52.376Z,19.08
2019-05-26T08:09:21.123Z,19.07
2019-05-26T08:11:49.522Z,18.90
2019-05-26T08:14:17.914Z,18.70
2019-05-26T08:16:46.319Z,18.63
2019-05-26T08:19:14.798Z,18.43
2019-05-26T08:21:43.533Z,18.31
2019-05-26T08:24:11.936Z,18.32
2019-05-26T08:26:40.326Z,18.35
2019-05-26T08:29:08.730Z,18.42
2019-05-26T08:31:37.128Z,18.42
2019-05-26T08:34:05.620Z,18.33
2019-05-26T08:36:34.018Z,18.31
2019-05-26T08:39:02.527Z,18.36
2019-05-26T08:41:30.914Z,18.58
2019-05-26T08:44:00.167Z,18.80
2019-05-26T08:46:28.600Z,19.01
2019-05-26T08:48:56.991Z,19.22
2019-05-26T08:51:25.384Z,19.23
2019-05-26T08:53:53.802Z,19.48
2019-05-26T08:56:22.195Z,19.82
2019-05-26T08:58:50.658Z,20.03
2019-05-26T09:01:19.094Z,20.22
2019-05-26T09:03:47.484Z,20.60
2019-05-26T09:06:15.880Z,20.87
2019-05-26T09:08:44.546Z,21.00
2019-05-26T09:11:12.928Z,21.17
2019-05-26T09:13:43.576Z,21.31
2019-05-26T09:16:11.976Z,21.29
2019-05-26T09:18:40.375Z,21.09
2019-05-26T09:21:08.802Z,20.89
2019-05-26T09:23:40.399Z,20.85
2019-05-26T09:26:11.824Z,21.18
2019-05-26T09:28:40.211Z,21.28
2019-05-26T09:31:08.598Z,21.23
2019-05-26T09:33:37.058Z,21.08
2019-05-26T09:36:05.424Z,20.89
2019-05-26T09:38:33.826Z,20.86
2019-05-26T09:41:02.243Z,20.92
2019-05-26T09:43:30.624Z,21.04
2019-05-26T09:45:59.031Z,21.26
2019-05-26T09:48:27.431Z,21.32
2019-05-26T09:50:55.839Z,21.21
2019-05-26T09:53:24.236Z,20.95
2019-05-26T09:55:52.633Z,20.91
2019-05-26T09:58:21.026Z,21.02
2019-05-26T10:00:49.509Z,21.11
2019-05-26T10:03:17.915Z,21.36
2019-05-26T10:05:46.324Z,21.55
2019-05-26T10:08:14.965Z,21.72
2019-05-26T10:10:43.448Z,21.49
2019-05-26T10:13:11.838Z,21.36
2019-05-26T10:15:40.253Z,21.32
2019-05-26T10:18:08.653Z,21.32
2019-05-26T10:20:37.066Z,21.28
2019-05-26T10:23:05.459Z,21.30
2019-05-26T10:25:34.115Z,21.38
2019-05-26T10:28:02.508Z,21.62
2019-05-26T10:30:30.995Z,21.42
2019-05-26T10:32:59.391Z,21.39
2019-05-26T10:35:27.804Z,21.48
2019-05-26T10:37:56.187Z,21.45
2019-05-26T10:40:24.588Z,21.54
2019-05-26T10:42:53.022Z,21.64
2019-05-26T10:45:21.499Z,22.01
2019-05-26T10:47:49.881Z,21.99
2019-05-26T10:50:18.628Z,21.95
2019-05-26T10:52:47.029Z,22.01
2019-05-26T10:55:15.792Z,21.91
2019-05-26T10:57:44.176Z,22.12
2019-05-26T11:00:12.911Z,22.28
2019-05-26T11:02:41.991Z,22.28
2019-05-26T11:05:10.945Z,22.30
2019-05-26T11:07:39.345Z,22.26
2019-05-26T11:10:08.381Z,22.28
2019-05-26T11:12:36.966Z,22.46
2019-05-26T11:15:09.342Z,22.46
2019-05-26T11:17:37.770Z,22.52
2019-05-26T11:20:12.446Z,22.68
2019-05-26T11:22:40.875Z,22.66
2019-05-26T11:25:09.567Z,22.97
2019-05-26T11:28:00.161Z,22.95
2019-05-26T11:30:16.779Z,22.68
2019-05-26T11:32:45.193Z,22.53
2019-05-26T11:35:14.936Z,22.43
2019-05-26T11:37:43.351Z,22.50
2019-05-26T11:40:12.078Z,22.51
2019-05-26T11:42:40.495Z,22.59
2019-05-26T11:45:10.520Z,22.66
2019-05-26T11:47:39.001Z,22.75
2019-05-26T11:50:07.834Z,22.83
2019-05-26T11:52:36.326Z,22.99
2019-05-26T11:55:07.098Z,22.99
2019-05-26T11:57:36.959Z,22.80
2019-05-26T12:00:09.782Z,22.94
2019-05-26T12:02:38.905Z,23.07
2019-05-26T12:05:10.300Z,23.41
2019-05-26T12:07:39.304Z,23.55
2019-05-26T12:10:08.251Z,23.52
2019-05-26T12:12:36.772Z,23.73
2019-05-26T12:15:09.870Z,23.52
2019-05-26T12:17:39.288Z,23.37
2019-05-26T12:20:08.725Z,23.51
2019-05-26T12:22:37.141Z,23.80
2019-05-26T12:25:09.020Z,23.93
2019-05-26T12:27:37.438Z,23.89
2019-05-26T12:30:08.047Z,23.95
2019-05-26T12:32:36.453Z,23.94
2019-05-26T12:35:07.509Z,23.94
2019-05-26T12:37:35.911Z,23.92
2019-05-26T12:40:06.353Z,23.85
2019-05-26T12:42:34.745Z,23.93
2019-05-26T12:45:06.456Z,23.51
2019-05-26T12:47:34.976Z,23.51
2019-05-26T12:50:04.816Z,23.40
2019-05-26T12:52:33.215Z,23.66
2019-05-26T12:55:01.687Z,23.93
2019-05-26T12:57:30.104Z,24.04
2019-05-26T12:59:58.879Z,23.93
2019-05-26T13:02:27.279Z,23.77
2019-05-26T13:04:55.731Z,23.91
2019-05-26T13:07:24.433Z,24.02
2019-05-26T13:09:52.845Z,23.48
2019-05-26T13:12:21.923Z,23.48
2019-05-26T13:15:04.937Z,23.61
2019-05-26T13:17:20.847Z,23.62
2019-05-26T13:19:49.234Z,23.75
2019-05-26T13:22:17.642Z,23.75
2019-05-26T13:24:46.116Z,23.44
2019-05-26T13:27:14.734Z,23.56
2019-05-26T13:29:43.150Z,23.62
2019-05-26T13:32:11.578Z,23.79
2019-05-26T13:34:39.980Z,23.93
2019-05-26T13:37:08.604Z,24.07
2019-05-26T13:39:37.005Z,23.96
2019-05-26T13:42:05.533Z,23.77
2019-05-26T13:44:33.944Z,23.53
2019-05-26T13:47:02.353Z,23.44
2019-05-26T13:49:30.777Z,23.35
2019-05-26T13:51:59.201Z,23.40
2019-05-26T13:54:27.611Z,23.36
2019-05-26T13:56:56.005Z,23.39
2019-05-26T13:59:24.435Z,23.38
2019-05-26T14:01:52.845Z,23.26
2019-05-26T14:04:21.230Z,23.31
2019-05-26T14:06:49.650Z,23.26
2019-05-26T14:09:18.065Z,22.95
2019-05-26T14:11:46.479Z,22.86
2019-05-26T14:14:14.865Z,22.84
2019-05-26T14:16:44.879Z,22.78
2019-05-26T14:19:13.625Z,22.72
2019-05-26T14:21:42.036Z,22.42
2019-05-26T14:24:10.429Z,22.34
2019-05-26T14:26:38.842Z,22.35
2019-05-26T14:29:07.382Z,22.52
2019-05-26T14:31:35.786Z,22.56
2019-05-26T14:34:04.259Z,22.43
2019-05-26T14:36:32.909Z,22.29
2019-05-26T14:39:01.310Z,22.28
2019-05-26T14:41:29.695Z,22.26
2019-05-26T14:43:58.109Z,22.27
2019-05-26T14:46:26.510Z,22.44
2019-05-26T14:48:55.210Z,22.55
2019-05-26T14:51:23.623Z,22.53
2019-05-26T14:53:52.030Z,22.55
2019-05-26T14:56:20.441Z,22.38
2019-05-26T14:58:48.832Z,22.41
2019-05-26T15:01:17.385Z,22.50
2019-05-26T15:03:45.780Z,22.59
2019-05-26T15:06:17.889Z,22.48
2019-05-26T15:08:46.640Z,22.32
2019-05-26T15:11:20.106Z,22.37
2019-05-26T15:13:48.576Z,22.32
2019-05-26T15:16:17.439Z,22.40
2019-05-26T15:18:45.853Z,22.38
2019-05-26T15:21:14.280Z,22.36
2019-05-26T15:23:42.672Z,22.28
2019-05-26T15:26:11.097Z,22.22
2019-05-26T15:28:39.505Z,22.14
2019-05-26T15:31:10.055Z,22.03
2019-05-26T15:33:38.079Z,21.97
2019-05-26T15:36:06.477Z,21.95
2019-05-26T15:38:43.020Z,21.88
2019-05-26T15:41:05.082Z,21.90
2019-05-26T15:43:33.488Z,21.86
2019-05-26T15:46:01.874Z,21.74
2019-05-26T15:48:30.283Z,21.64
2019-05-26T15:50:58.692Z,21.54
2019-05-26T15:53:27.099Z,21.51
2019-05-26T15:55:55.497Z,21.55
2019-05-26T15:58:23.902Z,21.51
2019-05-26T16:00:52.295Z,21.43
2019-05-26T16:03:20.710Z,21.39
2019-05-26T16:05:49.111Z,21.38
2019-05-26T16:08:17.521Z,21.39
2019-05-26T16:10:45.913Z,21.41
2019-05-26T16:13:14.305Z,21.31
2019-05-26T16:15:42.790Z,21.27
2019-05-26T16:18:11.181Z,21.24
2019-05-26T16:20:39.572Z,21.25
2019-05-26T16:23:08.954Z,21.31
2019-05-26T16:25:37.537Z,21.27
2019-05-26T16:28:05.931Z,21.34
2019-05-26T16:30:34.348Z,21.36
2019-05-26T16:33:03.061Z,21.11
2019-05-26T16:35:31.530Z,21.10
2019-05-26T16:37:59.950Z,21.05
2019-05-26T16:40:28.345Z,20.91
2019-05-26T16:42:56.737Z,20.82
2019-05-26T16:45:25.179Z,20.73
2019-05-26T16:47:53.569Z,20.70
2019-05-26T16:50:21.971Z,20.65
2019-05-26T16:52:54.225Z,20.60
2019-05-26T16:55:20.797Z,20.54
2019-05-26T16:57:49.515Z,20.54
2019-05-26T17:00:18.709Z,20.53
2019-05-26T17:02:47.104Z,20.48
2019-05-26T17:05:15.965Z,20.44
2019-05-26T17:07:44.374Z,20.46
2019-05-26T17:10:13.080Z,20.42
2019-05-26T17:12:41.456Z,20.37
2019-05-26T17:15:10.348Z,20.29
2019-05-26T17:17:38.778Z,20.18
2019-05-26T17:20:09.235Z,20.14
2019-05-26T17:22:37.626Z,20.03
2019-05-26T17:25:07.173Z,20.05
2019-05-26T17:27:35.633Z,19.99
2019-05-26T17:30:07.922Z,19.96
2019-05-26T17:32:36.318Z,19.99
2019-05-26T17:35:06.267Z,19.97
2019-05-26T17:37:35.121Z,19.94
2019-05-26T17:40:06.021Z,19.87
2019-05-26T17:42:35.194Z,19.87
2019-05-26T17:45:06.071Z,19.83
2019-05-26T17:47:34.943Z,19.84
2019-05-26T17:50:05.306Z,19.81
2019-05-26T17:52:33.979Z,19.80
2019-05-26T17:55:02.754Z,19.85
2019-05-26T17:57:31.473Z,19.89
2019-05-26T18:00:02.459Z,19.96
2019-05-26T18:02:31.106Z,19.98
2019-05-26T18:04:59.496Z,19.98
2019-05-26T18:07:28.048Z,20.09
2019-05-26T18:09:56.508Z,20.05
2019-05-26T18:12:25.062Z,20.11
2019-05-26T18:14:53.729Z,20.15
2019-05-26T18:17:23.582Z,20.22
2019-05-26T18:19:51.967Z,20.15
2019-05-26T18:22:20.388Z,20.14
2019-05-26T18:24:56.667Z,20.18
2019-05-26T18:27:18.949Z,20.13
2019-05-26T18:29:47.330Z,20.15
2019-05-26T18:32:15.787Z,20.24
2019-05-26T18:34:44.434Z,20.33
2019-05-26T18:37:13.110Z,20.31
2019-05-26T18:39:41.529Z,20.14
2019-05-26T18:42:09.926Z,20.11
2019-05-26T18:44:38.321Z,20.15
2019-05-26T18:47:06.738Z,20.15
2019-05-26T18:49:35.427Z,20.02
2019-05-26T18:52:04.074Z,19.97
2019-05-26T18:54:32.461Z,19.85
2019-05-26T18:57:01.113Z,19.84
2019-05-26T18:59:29.513Z,19.80
2019-05-26T19:01:57.919Z,19.70
2019-05-26T19:04:26.315Z,19.63
2019-05-26T19:06:54.741Z,19.54
2019-05-26T19:09:23.141Z,19.49
2019-05-26T19:11:51.562Z,19.45
2019-05-26T19:14:20.027Z,19.43
2019-05-26T19:16:48.476Z,19.45
2019-05-26T19:19:17.171Z,19.51
2019-05-26T19:21:45.581Z,19.56
2019-05-26T19:24:14.340Z,19.61
2019-05-26T19:26:42.756Z,19.62
2019-05-26T19:29:11.145Z,19.58
2019-05-26T19:31:39.557Z,19.56
2019-05-26T19:34:07.943Z,19.59
2019-05-26T19:36:36.637Z,19.56
2019-05-26T19:39:08.060Z,19.58
2019-05-26T19:41:39.092Z,19.61
2019-05-26T19:44:07.269Z,19.62
2019-05-26T19:46:35.709Z,19.63
2019-05-26T19:49:04.569Z,19.64
2019-05-26T19:51:32.962Z,19.64
2019-05-26T19:54:01.422Z,19.63
2019-05-26T19:56:29.830Z,19.59
2019-05-26T19:58:58.231Z,19.60
2019-05-26T20:01:26.918Z,19.65
2019-05-26T20:03:55.553Z,19.67
2019-05-26T20:06:23.999Z,19.65
2019-05-26T20:08:52.422Z,19.60
2019-05-26T20:11:20.830Z,19.57
2019-05-26T20:13:49.243Z,19.53
2019-05-26T20:16:17.635Z,19.48
2019-05-26T20:18:46.046Z,19.46
2019-05-26T20:21:14.471Z,19.39
2019-05-26T20:23:43.215Z,19.44
2019-05-26T20:26:11.640Z,19.41
2019-05-26T20:28:40.041Z,19.30
2019-05-26T20:31:08.439Z,19.14
2019-05-26T20:33:36.865Z,19.10
2019-05-26T20:36:05.349Z,19.05
2019-05-26T20:38:33.753Z,19.00
2019-05-26T20:41:02.192Z,18.99
2019-05-26T20:43:30.565Z,19.01
2019-05-26T20:45:58.955Z,19.02
2019-05-26T20:48:27.346Z,19.01
2019-05-26T20:50:55.767Z,19.03
2019-05-26T20:53:24.194Z,19.06
2019-05-26T20:55:52.598Z,19.02
2019-05-26T20:58:21.059Z,18.94
2019-05-26T21:00:49.530Z,18.90
2019-05-26T21:03:17.924Z,18.93
2019-05-26T21:05:46.650Z,18.93
2019-05-26T21:08:15.131Z,18.91
2019-05-26T21:10:43.541Z,18.89
2019-05-26T21:13:11.958Z,18.87
2019-05-26T21:15:40.372Z,18.83
2019-05-26T21:18:08.765Z,18.88
2019-05-26T21:20:37.187Z,18.85
2019-05-26T21:23:05.584Z,18.77
2019-05-26T21:25:33.987Z,18.70
2019-05-26T21:28:02.383Z,18.63
2019-05-26T21:30:30.806Z,18.68
2019-05-26T21:32:59.465Z,18.71
2019-05-26T21:35:27.970Z,18.66
2019-05-26T21:37:56.379Z,18.65
2019-05-26T21:40:24.787Z,18.63
2019-05-26T21:42:53.181Z,18.57
2019-05-26T21:45:21.925Z,18.49
2019-05-26T21:47:50.311Z,18.44
2019-05-26T21:50:18.769Z,18.33
2019-05-26T21:52:47.185Z,18.12
2019-05-26T21:55:16.018Z,17.98
2019-05-26T21:57:44.421Z,17.90
2019-05-26T22:00:15.401Z,17.84
2019-05-26T22:02:43.796Z,17.74
2019-05-26T22:05:12.644Z,17.67
2019-05-26T22:07:41.206Z,17.60
2019-05-26T22:10:09.771Z,17.58
2019-05-26T22:12:38.168Z,17.53
2019-05-26T22:15:08.104Z,17.42
2019-05-26T22:17:36.526Z,17.35
2019-05-26T22:20:06.366Z,17.29
2019-05-26T22:22:34.761Z,17.23
2019-05-26T22:25:04.126Z,17.20
2019-05-26T22:27:32.521Z,17.15
2019-05-26T22:30:00.910Z,17.09
2019-05-26T22:32:29.397Z,17.05
2019-05-26T22:34:57.788Z,17.01
2019-05-26T22:37:26.198Z,16.96
2019-05-26T22:39:54.844Z,16.85
2019-05-26T22:42:23.245Z,16.71
2019-05-26T22:44:51.641Z,16.56
2019-05-26T22:47:20.423Z,16.51
2019-05-26T22:49:48.812Z,16.46
2019-05-26T22:52:17.918Z,16.42
2019-05-26T22:54:46.394Z,16.36
2019-05-26T22:57:15.153Z,16.27
2019-05-26T22:59:43.545Z,16.11
2019-05-26T23:02:11.951Z,16.00
2019-05-26T23:04:40.344Z,15.94
2019-05-26T23:07:08.767Z,15.91
2019-05-26T23:09:37.157Z,15.81
2019-05-26T23:12:05.636Z,15.74
2019-05-26T23:14:34.027Z,15.64
2019-05-26T23:17:02.441Z,15.48
2019-05-26T23:19:31.152Z,15.22
2019-05-26T23:21:59.566Z,15.22
2019-05-26T23:24:27.957Z,15.05
2019-05-26T23:26:56.373Z,14.92
2019-05-26T23:29:24.778Z,14.78
2019-05-26T23:31:53.182Z,14.62
2019-05-26T23:34:21.587Z,14.47
2019-05-26T23:36:50.004Z,14.29
2019-05-26T23:39:18.402Z,14.20
2019-05-26T23:41:46.790Z,14.09
2019-05-26T23:44:15.204Z,13.98
2019-05-26T23:46:43.602Z,13.91
2019-05-26T23:49:12.003Z,13.83
2019-05-26T23:51:40.393Z,13.81
2019-05-26T23:54:08.869Z,13.87
2019-05-26T23:56:37.261Z,13.85
2019-05-26T23:59:05.670Z,13.79
